createdAt,value
2018-02-13T00:00:46.286Z,19.40
2018-02-13T00:01:46.269Z,19.35
2018-02-13T00:02:46.265Z,19.38
2018-02-13T00:03:46.268Z,19.38
2018-02-13T00:04:46.261Z,19.27
2018-02-13T00:05:46.250Z,19.40
2018-02-13T00:06:46.244Z,19.28
2018-02-13T00:07:46.245Z,19.42
2018-02-13T00:08:46.266Z,19.46
2018-02-13T00:09:46.239Z,19.43
2018-02-13T00:10:46.224Z,19.45
2018-02-13T00:11:46.255Z,19.45
2018-02-13T00:12:46.223Z,19.43
2018-02-13T00:13:46.224Z,19.43
2018-02-13T00:14:46.205Z,19.50
2018-02-13T00:15:46.226Z,19.47
2018-02-13T00:16:46.188Z,19.47
2018-02-13T00:17:46.188Z,19.50
2018-02-13T00:18:46.203Z,19.50
2018-02-13T00:19:46.188Z,19.62
2018-02-13T00:20:46.204Z,19.57
2018-02-13T00:21:46.184Z,19.52
2018-02-13T00:22:46.170Z,19.61
2018-02-13T00:23:46.172Z,19.58
2018-02-13T00:24:46.161Z,19.68
2018-02-13T00:25:46.165Z,19.76
2018-02-13T00:26:46.154Z,19.67
2018-02-13T00:27:46.144Z,19.67
2018-02-13T00:28:46.149Z,19.70
2018-02-13T00:29:46.135Z,19.70
2018-02-13T00:30:46.134Z,19.68
2018-02-13T00:31:46.126Z,19.75
2018-02-13T00:32:46.111Z,19.78
2018-02-13T00:33:46.126Z,19.78
2018-02-13T00:34:46.116Z,19.72
2018-02-13T00:35:46.110Z,19.83
2018-02-13T00:36:46.099Z,19.79
2018-02-13T00:37:46.122Z,19.80
2018-02-13T00:38:46.082Z,19.82
2018-02-13T00:39:46.100Z,19.76
2018-02-13T00:40:46.083Z,19.76
2018-02-13T00:41:46.090Z,19.78
2018-02-13T00:42:46.094Z,19.79
2018-02-13T00:43:46.068Z,19.72
2018-02-13T00:44:46.059Z,19.75
2018-02-13T00:45:46.060Z,19.82
2018-02-13T00:46:46.050Z,19.78
2018-02-13T00:47:46.037Z,19.75
2018-02-13T00:48:46.039Z,19.78
2018-02-13T00:49:46.041Z,19.71
2018-02-13T00:50:46.037Z,19.68
2018-02-13T00:51:46.015Z,19.75
2018-02-13T00:52:46.014Z,19.79
2018-02-13T00:53:46.014Z,19.68
2018-02-13T00:54:46.016Z,19.72
2018-02-13T00:55:46.003Z,19.67
2018-02-13T00:56:45.996Z,19.78
2018-02-13T00:57:45.993Z,19.76
2018-02-13T00:58:45.985Z,19.76
2018-02-13T00:59:45.980Z,19.75
2018-02-13T01:00:45.970Z,19.67
2018-02-13T01:01:45.975Z,19.78
2018-02-13T01:02:45.979Z,19.70
2018-02-13T01:03:45.990Z,19.67
2018-02-13T01:04:45.965Z,19.65
2018-02-13T01:05:45.951Z,19.71
2018-02-13T01:06:45.952Z,19.72
2018-02-13T01:07:45.944Z,19.68
2018-02-13T01:08:45.934Z,19.76
2018-02-13T01:09:45.944Z,19.70
2018-02-13T01:10:45.920Z,19.64
2018-02-13T01:11:45.922Z,19.76
2018-02-13T01:12:45.951Z,19.67
2018-02-13T01:13:45.914Z,19.71
2018-02-13T01:14:45.904Z,19.72
2018-02-13T01:15:45.929Z,19.71
2018-02-13T01:16:45.897Z,19.72
2018-02-13T01:17:45.895Z,19.67
2018-02-13T01:18:45.909Z,19.61
2018-02-13T01:19:45.898Z,19.72
2018-02-13T01:20:45.931Z,19.72
2018-02-13T01:21:45.876Z,19.70
2018-02-13T01:22:45.872Z,19.71
2018-02-13T01:23:45.870Z,19.67
2018-02-13T01:24:45.876Z,19.64
2018-02-13T01:25:45.856Z,19.72
2018-02-13T01:26:45.855Z,19.57
2018-02-13T01:27:45.842Z,19.65
2018-02-13T01:28:45.832Z,19.65
2018-02-13T01:29:45.864Z,19.62
2018-02-13T01:30:45.835Z,19.58
2018-02-13T01:31:45.832Z,19.61
2018-02-13T01:32:45.824Z,19.61
2018-02-13T01:33:45.824Z,19.61
2018-02-13T01:34:45.806Z,19.47
2018-02-13T01:35:45.806Z,19.58
2018-02-13T01:36:45.805Z,19.53
2018-02-13T01:37:45.807Z,19.58
2018-02-13T01:38:45.794Z,19.60
2018-02-13T01:39:45.801Z,19.60
2018-02-13T01:40:45.811Z,19.49
2018-02-13T01:41:45.794Z,19.47
2018-02-13T01:42:45.762Z,19.53
2018-02-13T01:43:45.777Z,19.64
2018-02-13T01:44:45.757Z,19.53
2018-02-13T01:45:45.763Z,19.57
2018-02-13T01:46:45.762Z,19.49
2018-02-13T01:47:45.740Z,19.47
2018-02-13T01:48:45.752Z,19.52
2018-02-13T01:49:45.751Z,19.53
2018-02-13T01:50:45.742Z,19.45
2018-02-13T01:51:45.720Z,19.53
2018-02-13T01:52:45.725Z,19.45
2018-02-13T01:53:45.720Z,19.49
2018-02-13T01:54:45.712Z,19.46
2018-02-13T01:55:45.721Z,19.40
2018-02-13T01:56:45.694Z,19.42
2018-02-13T01:57:45.701Z,19.42
2018-02-13T01:58:45.691Z,19.46
2018-02-13T01:59:45.710Z,19.55
2018-02-13T02:00:45.707Z,19.50
2018-02-13T02:01:45.680Z,19.46
2018-02-13T02:02:45.676Z,19.46
2018-02-13T02:03:45.677Z,19.40
2018-02-13T02:04:45.666Z,19.46
2018-02-13T02:05:45.655Z,19.47
2018-02-13T02:06:45.668Z,19.43
2018-02-13T02:07:45.640Z,19.47
2018-02-13T02:08:45.636Z,19.39
2018-02-13T02:09:45.642Z,19.42
2018-02-13T02:10:45.653Z,19.49
2018-02-13T02:11:45.651Z,19.43
2018-02-13T02:12:45.621Z,19.39
2018-02-13T02:13:45.611Z,19.38
2018-02-13T02:14:45.622Z,19.35
2018-02-13T02:15:45.610Z,19.38
2018-02-13T02:16:45.611Z,19.39
2018-02-13T02:17:45.618Z,19.40
2018-02-13T02:18:45.612Z,19.39
2018-02-13T02:19:45.596Z,19.39
2018-02-13T02:20:45.595Z,19.38
2018-02-13T02:21:45.577Z,19.32
2018-02-13T02:22:45.565Z,19.32
2018-02-13T02:23:45.570Z,19.30
2018-02-13T02:24:45.569Z,19.35
2018-02-13T02:25:45.556Z,19.28
2018-02-13T02:26:45.550Z,19.32
2018-02-13T02:27:45.550Z,19.34
2018-02-13T02:28:45.541Z,19.32
2018-02-13T02:29:45.552Z,19.34
2018-02-13T02:30:45.543Z,19.34
2018-02-13T02:31:45.531Z,19.38
2018-02-13T02:32:45.532Z,19.38
2018-02-13T02:33:45.510Z,19.38
2018-02-13T02:34:45.512Z,19.40
2018-02-13T02:35:45.509Z,19.42
2018-02-13T02:36:45.501Z,19.47
2018-02-13T02:37:45.493Z,19.50
2018-02-13T02:38:45.497Z,19.42
2018-02-13T02:39:45.497Z,19.42
2018-02-13T02:40:45.491Z,19.46
2018-02-13T02:41:45.468Z,19.53
2018-02-13T02:42:45.474Z,19.50
2018-02-13T02:43:45.483Z,19.49
2018-02-13T02:44:45.458Z,19.62
2018-02-13T02:45:45.462Z,19.52
2018-02-13T02:46:45.473Z,19.57
2018-02-13T02:47:45.453Z,19.55
2018-02-13T02:48:45.438Z,19.50
2018-02-13T02:49:45.438Z,19.61
2018-02-13T02:50:45.423Z,19.68
2018-02-13T02:51:45.424Z,19.70
2018-02-13T02:52:45.433Z,19.67
2018-02-13T02:53:45.413Z,19.72
2018-02-13T02:54:45.409Z,19.70
2018-02-13T02:55:45.414Z,19.76
2018-02-13T02:56:45.409Z,19.68
2018-02-13T02:57:45.396Z,19.79
2018-02-13T02:58:45.396Z,19.68
2018-02-13T02:59:45.883Z,19.78
2018-02-13T03:00:45.381Z,19.79
2018-02-13T03:01:45.380Z,19.76
2018-02-13T03:02:45.370Z,19.72
2018-02-13T03:03:45.356Z,19.75
2018-02-13T03:04:45.352Z,19.82
2018-02-13T03:05:45.353Z,19.79
2018-02-13T03:06:45.358Z,19.75
2018-02-13T03:07:45.338Z,19.75
2018-02-13T03:08:45.332Z,19.78
2018-02-13T03:09:45.333Z,19.72
2018-02-13T03:10:45.338Z,19.71
2018-02-13T03:11:45.323Z,19.71
2018-02-13T03:12:45.318Z,19.71
2018-02-13T03:13:45.316Z,19.71
2018-02-13T03:14:45.317Z,19.72
2018-02-13T03:15:45.322Z,19.71
2018-02-13T03:16:45.292Z,19.75
2018-02-13T03:17:45.292Z,19.72
2018-02-13T03:18:45.288Z,19.72
2018-02-13T03:19:45.279Z,19.71
2018-02-13T03:20:45.273Z,19.65
2018-02-13T03:21:45.268Z,19.70
2018-02-13T03:22:45.264Z,19.67
2018-02-13T03:23:45.264Z,19.65
2018-02-13T03:24:45.262Z,19.75
2018-02-13T03:25:45.259Z,19.70
2018-02-13T03:26:45.249Z,19.79
2018-02-13T03:27:45.251Z,19.72
2018-02-13T03:28:45.239Z,19.71
2018-02-13T03:29:45.237Z,19.67
2018-02-13T03:30:45.236Z,19.72
2018-02-13T03:31:45.218Z,19.76
2018-02-13T03:32:45.218Z,19.75
2018-02-13T03:33:45.209Z,19.60
2018-02-13T03:34:45.212Z,19.70
2018-02-13T03:35:45.201Z,19.67
2018-02-13T03:36:45.207Z,19.65
2018-02-13T03:37:45.192Z,19.64
2018-02-13T03:38:45.192Z,19.67
2018-02-13T03:39:45.184Z,19.61
2018-02-13T03:40:45.183Z,19.61
2018-02-13T03:41:45.176Z,19.61
2018-02-13T03:42:45.164Z,19.61
2018-02-13T03:43:45.169Z,19.68
2018-02-13T03:44:45.162Z,19.62
2018-02-13T03:45:45.157Z,19.57
2018-02-13T03:46:45.149Z,19.62
2018-02-13T03:47:45.154Z,19.58
2018-02-13T03:48:45.154Z,19.58
2018-02-13T03:49:45.139Z,19.53
2018-02-13T03:50:45.144Z,19.57
2018-02-13T03:51:45.151Z,19.57
2018-02-13T03:52:45.117Z,19.52
2018-02-13T03:53:45.163Z,19.53
2018-02-13T03:54:45.113Z,19.55
2018-02-13T03:55:45.112Z,19.50
2018-02-13T03:56:45.098Z,19.49
2018-02-13T03:57:45.103Z,19.49
2018-02-13T03:58:45.087Z,19.49
2018-02-13T03:59:45.089Z,19.58
2018-02-13T04:00:45.079Z,19.52
2018-02-13T04:01:45.082Z,19.49
2018-02-13T04:02:45.073Z,19.50
2018-02-13T04:03:45.063Z,19.58
2018-02-13T04:04:45.063Z,19.43
2018-02-13T04:05:45.069Z,19.57
2018-02-13T04:06:45.053Z,19.45
2018-02-13T04:07:45.053Z,19.45
2018-02-13T04:08:45.049Z,19.46
2018-02-13T04:09:45.040Z,19.50
2018-02-13T04:10:45.029Z,19.53
2018-02-13T04:11:45.019Z,19.46
2018-02-13T04:12:45.022Z,19.42
2018-02-13T04:13:45.010Z,19.49
2018-02-13T04:14:45.009Z,19.43
2018-02-13T04:15:45.010Z,19.39
2018-02-13T04:16:45.000Z,19.43
2018-02-13T04:17:45.003Z,19.46
2018-02-13T04:18:44.998Z,19.42
2018-02-13T04:19:44.982Z,19.45
2018-02-13T04:20:44.984Z,19.35
2018-02-13T04:21:44.975Z,19.45
2018-02-13T04:22:44.974Z,19.47
2018-02-13T04:23:44.967Z,19.40
2018-02-13T04:24:44.962Z,19.47
2018-02-13T04:25:44.954Z,19.42
2018-02-13T04:26:44.962Z,19.39
2018-02-13T04:27:44.957Z,19.40
2018-02-13T04:28:44.934Z,19.43
2018-02-13T04:29:44.934Z,19.45
2018-02-13T04:30:44.925Z,19.45
2018-02-13T04:31:44.932Z,19.27
2018-02-13T04:32:44.918Z,19.40
2018-02-13T04:33:44.914Z,19.34
2018-02-13T04:34:44.917Z,19.42
2018-02-13T04:35:44.905Z,19.43
2018-02-13T04:36:44.928Z,19.38
2018-02-13T04:37:44.899Z,19.38
2018-02-13T04:38:44.892Z,19.34
2018-02-13T04:39:44.884Z,19.35
2018-02-13T04:40:44.883Z,19.27
2018-02-13T04:41:44.931Z,19.34
2018-02-13T04:42:44.884Z,19.30
2018-02-13T04:43:44.873Z,19.35
2018-02-13T04:44:44.863Z,19.35
2018-02-13T04:45:44.850Z,19.25
2018-02-13T04:46:44.858Z,19.31
2018-02-13T04:47:44.853Z,19.28
2018-02-13T04:48:44.835Z,19.30
2018-02-13T04:49:44.859Z,19.39
2018-02-13T04:50:44.823Z,19.40
2018-02-13T04:51:44.818Z,19.40
2018-02-13T04:52:44.818Z,19.38
2018-02-13T04:53:44.817Z,19.47
2018-02-13T04:54:44.803Z,19.40
2018-02-13T04:55:44.804Z,19.45
2018-02-13T04:56:44.808Z,19.46
2018-02-13T04:57:44.793Z,19.46
2018-02-13T04:58:44.812Z,19.45
2018-02-13T04:59:44.786Z,19.53
2018-02-13T05:00:44.783Z,19.58
2018-02-13T05:01:44.773Z,19.53
2018-02-13T05:02:44.768Z,19.52
2018-02-13T05:03:44.763Z,19.60
2018-02-13T05:04:44.753Z,19.49
2018-02-13T05:05:44.756Z,19.57
2018-02-13T05:06:44.750Z,19.62
2018-02-13T05:07:44.744Z,19.61
2018-02-13T05:08:44.741Z,19.55
2018-02-13T05:09:44.736Z,19.72
2018-02-13T05:10:44.741Z,19.55
2018-02-13T05:11:44.736Z,19.67
2018-02-13T05:12:44.725Z,19.70
2018-02-13T05:13:44.710Z,19.70
2018-02-13T05:14:44.706Z,19.67
2018-02-13T05:15:44.703Z,19.67
2018-02-13T05:16:44.705Z,19.78
2018-02-13T05:17:44.705Z,19.75
2018-02-13T05:18:44.697Z,19.76
2018-02-13T05:19:44.705Z,19.72
2018-02-13T05:20:44.686Z,19.78
2018-02-13T05:21:44.678Z,19.80
2018-02-13T05:22:44.675Z,19.78
2018-02-13T05:23:44.666Z,19.76
2018-02-13T05:24:44.664Z,19.82
2018-02-13T05:25:44.659Z,19.82
2018-02-13T05:26:44.650Z,19.75
2018-02-13T05:27:44.646Z,19.76
2018-02-13T05:28:44.645Z,19.80
2018-02-13T05:29:44.664Z,19.79
2018-02-13T05:30:44.640Z,19.78
2018-02-13T05:31:44.629Z,19.78
2018-02-13T05:32:44.617Z,19.78
2018-02-13T05:33:44.619Z,19.76
2018-02-13T05:34:44.603Z,19.75
2018-02-13T05:35:44.616Z,19.76
2018-02-13T05:36:44.595Z,19.72
2018-02-13T05:37:44.595Z,19.78
2018-02-13T05:38:44.604Z,19.71
2018-02-13T05:39:44.605Z,19.61
2018-02-13T05:40:44.574Z,19.72
2018-02-13T05:41:44.575Z,19.76
2018-02-13T05:42:44.603Z,19.72
2018-02-13T05:43:44.560Z,19.62
2018-02-13T05:44:44.551Z,19.65
2018-02-13T05:45:44.552Z,19.70
2018-02-13T05:46:44.549Z,19.67
2018-02-13T05:47:44.555Z,19.72
2018-02-13T05:48:44.545Z,19.70
2018-02-13T05:49:44.530Z,19.71
2018-02-13T05:50:44.533Z,19.68
2018-02-13T05:51:44.519Z,19.67
2018-02-13T05:52:44.524Z,19.72
2018-02-13T05:53:44.530Z,19.72
2018-02-13T05:54:44.506Z,19.65
2018-02-13T05:55:44.501Z,19.71
2018-02-13T05:56:44.527Z,19.64
2018-02-13T05:57:44.491Z,19.72
2018-02-13T05:58:44.494Z,19.60
2018-02-13T05:59:44.485Z,19.53
2018-02-13T06:00:44.475Z,19.75
2018-02-13T06:01:44.476Z,19.61
2018-02-13T06:02:44.469Z,19.61
2018-02-13T06:03:44.478Z,19.62
2018-02-13T06:04:44.485Z,19.60
2018-02-13T06:05:44.462Z,19.58
2018-02-13T06:06:44.452Z,19.65
2018-02-13T06:07:44.445Z,19.62
2018-02-13T06:08:44.436Z,19.62
2018-02-13T06:09:44.448Z,19.65
2018-02-13T06:10:44.425Z,19.55
2018-02-13T06:11:44.435Z,19.53
2018-02-13T06:12:44.422Z,19.57
2018-02-13T06:13:44.425Z,19.61
2018-02-13T06:14:44.406Z,19.60
2018-02-13T06:15:44.427Z,19.58
2018-02-13T06:16:44.394Z,19.61
2018-02-13T06:17:44.396Z,19.49
2018-02-13T06:18:44.386Z,19.61
2018-02-13T06:19:44.385Z,19.61
2018-02-13T06:20:44.391Z,19.49
2018-02-13T06:21:44.389Z,19.52
2018-02-13T06:22:44.365Z,19.57
2018-02-13T06:23:44.360Z,19.46
2018-02-13T06:24:44.372Z,19.55
2018-02-13T06:25:44.355Z,19.50
2018-02-13T06:26:44.351Z,19.50
2018-02-13T06:27:44.347Z,19.53
2018-02-13T06:28:44.341Z,19.49
2018-02-13T06:29:44.341Z,19.52
2018-02-13T06:30:44.335Z,19.46
2018-02-13T06:31:44.320Z,19.42
2018-02-13T06:32:44.332Z,19.53
2018-02-13T06:33:44.317Z,19.47
2018-02-13T06:34:44.317Z,19.46
2018-02-13T06:35:44.325Z,19.53
2018-02-13T06:36:44.303Z,19.46
2018-02-13T06:37:44.301Z,19.50
2018-02-13T06:38:44.292Z,19.47
2018-02-13T06:39:44.291Z,19.42
2018-02-13T06:40:44.280Z,19.49
2018-02-13T06:41:44.282Z,19.49
2018-02-13T06:42:44.272Z,19.46
2018-02-13T06:43:44.270Z,19.40
2018-02-13T06:44:44.266Z,19.40
2018-02-13T06:45:44.253Z,19.50
2018-02-13T06:46:44.255Z,19.46
2018-02-13T06:47:44.252Z,19.49
2018-02-13T06:48:44.253Z,19.39
2018-02-13T06:49:44.237Z,19.43
2018-02-13T06:50:44.230Z,19.39
2018-02-13T06:51:44.235Z,19.35
2018-02-13T06:52:44.228Z,19.39
2018-02-13T06:53:44.215Z,19.32
2018-02-13T06:54:44.213Z,19.43
2018-02-13T06:55:44.202Z,19.40
2018-02-13T06:56:44.207Z,19.38
2018-02-13T06:57:44.202Z,19.45
2018-02-13T06:58:44.198Z,19.40
2018-02-13T06:59:44.191Z,19.38
2018-02-13T07:00:44.183Z,19.38
2018-02-13T07:01:44.192Z,19.45
2018-02-13T07:02:44.165Z,19.40
2018-02-13T07:03:44.163Z,19.40
2018-02-13T07:04:44.191Z,19.38
2018-02-13T07:05:44.157Z,19.32
2018-02-13T07:06:44.156Z,19.42
2018-02-13T07:07:44.173Z,19.39
2018-02-13T07:08:44.132Z,19.40
2018-02-13T07:09:44.136Z,19.40
2018-02-13T07:10:44.136Z,19.39
2018-02-13T07:11:44.130Z,19.35
2018-02-13T07:12:44.122Z,19.39
2018-02-13T07:13:44.116Z,19.49
2018-02-13T07:14:44.137Z,19.38
2018-02-13T07:15:44.116Z,19.46
2018-02-13T07:16:44.096Z,19.46
2018-02-13T07:17:44.092Z,19.49
2018-02-13T07:18:44.092Z,19.50
2018-02-13T07:19:44.091Z,19.52
2018-02-13T07:20:44.092Z,19.53
2018-02-13T07:21:44.083Z,19.53
2018-02-13T07:22:44.073Z,19.47
2018-02-13T07:23:44.066Z,19.65
2018-02-13T07:24:44.058Z,19.57
2018-02-13T07:25:44.062Z,19.55
2018-02-13T07:26:44.056Z,19.65
2018-02-13T07:27:44.062Z,19.70
2018-02-13T07:28:44.042Z,19.65
2018-02-13T07:29:44.033Z,19.64
2018-02-13T07:30:44.037Z,19.67
2018-02-13T07:31:44.038Z,19.72
2018-02-13T07:32:44.017Z,19.72
2018-02-13T07:33:44.044Z,19.76
2018-02-13T07:34:44.010Z,19.78
2018-02-13T07:35:44.006Z,19.79
2018-02-13T07:36:43.998Z,19.78
2018-02-13T07:37:43.993Z,19.82
2018-02-13T07:38:43.988Z,19.87
2018-02-13T07:39:43.978Z,19.86
2018-02-13T07:40:43.977Z,19.94
2018-02-13T07:41:43.973Z,19.92
2018-02-13T07:42:43.970Z,19.90
2018-02-13T07:43:43.976Z,19.94
2018-02-13T07:44:43.977Z,19.86
2018-02-13T07:45:43.959Z,19.92
2018-02-13T07:46:43.953Z,19.90
2018-02-13T07:47:43.938Z,19.92
2018-02-13T07:48:43.946Z,19.94
2018-02-13T07:49:43.936Z,19.89
2018-02-13T07:50:43.949Z,19.90
2018-02-13T07:51:43.919Z,19.92
2018-02-13T07:52:43.918Z,20.01
2018-02-13T07:53:43.939Z,20.07
2018-02-13T07:54:43.908Z,20.02
2018-02-13T07:55:43.906Z,20.00
2018-02-13T07:56:43.913Z,20.04
2018-02-13T07:57:43.887Z,20.07
2018-02-13T07:58:43.896Z,20.07
2018-02-13T07:59:43.889Z,20.05
2018-02-13T08:00:43.919Z,20.07
2018-02-13T08:01:43.888Z,20.02
2018-02-13T08:02:44.367Z,19.90
2018-02-13T08:18:07.675Z,20.31
2018-02-13T08:18:28.063Z,20.35
2018-02-13T08:19:28.054Z,20.48
2018-02-13T08:20:28.089Z,20.51
2018-02-13T08:21:28.034Z,20.61
2018-02-13T08:22:28.047Z,20.73
2018-02-13T08:23:28.029Z,20.72
2018-02-13T08:24:28.039Z,20.79
2018-02-13T08:25:28.015Z,20.88
2018-02-13T08:26:28.025Z,21.00
2018-02-13T08:27:28.018Z,20.96
2018-02-13T08:28:28.008Z,20.93
2018-02-13T08:29:28.007Z,20.91
2018-02-13T08:30:28.015Z,20.91
2018-02-13T08:31:28.057Z,20.93
2018-02-13T08:32:27.993Z,20.85
2018-02-13T08:33:27.984Z,20.98
2018-02-13T08:34:27.997Z,20.94
2018-02-13T08:35:27.992Z,20.88
2018-02-13T08:36:27.972Z,20.96
2018-02-13T08:37:27.984Z,20.90
2018-02-13T08:38:27.963Z,20.83
2018-02-13T08:39:27.967Z,20.82
2018-02-13T08:40:27.947Z,20.90
2018-02-13T08:41:27.952Z,20.78
2018-02-13T08:42:27.949Z,20.91
2018-02-13T08:43:27.954Z,20.90
2018-02-13T08:44:27.933Z,20.72
2018-02-13T08:45:27.939Z,20.83
2018-02-13T08:46:27.930Z,20.88
2018-02-13T08:47:27.923Z,20.76
2018-02-13T08:48:27.920Z,20.81
2018-02-13T08:49:27.914Z,20.81
2018-02-13T08:50:27.909Z,20.82
2018-02-13T08:51:27.906Z,20.88
2018-02-13T08:52:27.898Z,20.82
2018-02-13T08:53:27.899Z,20.97
2018-02-13T08:54:27.897Z,20.93
2018-02-13T08:55:27.886Z,20.94
2018-02-13T08:56:27.883Z,20.96
2018-02-13T08:57:27.874Z,20.98
2018-02-13T08:58:27.915Z,20.98
2018-02-13T08:59:27.876Z,21.06
2018-02-13T09:00:27.867Z,21.05
2018-02-13T09:01:27.876Z,21.16
2018-02-13T09:02:27.860Z,21.13
2018-02-13T09:03:27.870Z,21.12
2018-02-13T09:04:27.848Z,21.13
2018-02-13T09:05:27.841Z,21.24
2018-02-13T09:06:27.894Z,21.24
2018-02-13T09:07:27.845Z,21.24
2018-02-13T09:08:27.840Z,21.30
2018-02-13T09:09:27.834Z,21.18
2018-02-13T09:10:27.825Z,21.22
2018-02-13T09:11:27.816Z,21.30
2018-02-13T09:12:27.818Z,21.33
2018-02-13T09:13:27.808Z,21.33
2018-02-13T09:14:27.818Z,21.37
2018-02-13T09:15:27.800Z,21.40
2018-02-13T09:16:27.794Z,21.40
2018-02-13T09:17:27.798Z,21.49
2018-02-13T09:18:27.783Z,21.48
2018-02-13T09:19:27.782Z,21.45
2018-02-13T09:20:27.777Z,21.49
2018-02-13T09:21:27.780Z,21.51
2018-02-13T09:22:27.778Z,21.42
2018-02-13T09:23:27.778Z,21.51
2018-02-13T09:24:27.755Z,21.58
2018-02-13T09:25:27.751Z,21.52
2018-02-13T09:26:27.756Z,21.58
2018-02-13T09:27:27.764Z,21.56
2018-02-13T09:28:27.770Z,21.61
2018-02-13T09:29:27.744Z,21.70
2018-02-13T09:30:27.743Z,21.64
2018-02-13T09:31:27.743Z,21.71
2018-02-13T09:32:27.744Z,21.71
2018-02-13T09:33:27.718Z,21.71
2018-02-13T09:34:27.739Z,21.71
2018-02-13T09:35:27.718Z,21.75
2018-02-13T09:36:27.715Z,21.79
2018-02-13T09:37:27.711Z,21.71
2018-02-13T09:38:27.706Z,21.83
2018-02-13T09:39:27.704Z,21.85
2018-02-13T09:40:27.701Z,21.85
2018-02-13T09:41:27.700Z,21.90
2018-02-13T09:42:27.680Z,21.85
2018-02-13T09:43:27.707Z,21.85
2018-02-13T09:44:27.708Z,21.89
2018-02-13T09:45:27.672Z,21.93
2018-02-13T09:46:27.676Z,21.89
2018-02-13T09:47:27.676Z,21.93
2018-02-13T09:48:27.657Z,21.91
2018-02-13T09:49:27.657Z,21.90
2018-02-13T09:50:27.684Z,21.96
2018-02-13T09:51:27.668Z,21.96
2018-02-13T09:52:27.641Z,21.93
2018-02-13T09:53:27.641Z,21.91
2018-02-13T09:54:27.644Z,22.02
2018-02-13T09:55:27.651Z,22.01
2018-02-13T09:56:27.633Z,21.99
2018-02-13T09:57:27.635Z,22.04
2018-02-13T09:58:27.625Z,22.04
2018-02-13T09:59:27.619Z,21.99
2018-02-13T10:00:27.623Z,22.06
2018-02-13T10:01:27.621Z,22.02
2018-02-13T10:02:27.638Z,22.09
2018-02-13T10:03:27.615Z,22.01
2018-02-13T10:04:27.601Z,22.01
2018-02-13T10:05:27.609Z,21.99
2018-02-13T10:06:27.592Z,22.01
2018-02-13T10:07:27.599Z,22.05
2018-02-13T10:08:27.649Z,22.06
2018-02-13T10:09:27.583Z,22.04
2018-02-13T10:10:27.611Z,22.04
2018-02-13T10:11:27.584Z,22.02
2018-02-13T10:12:27.582Z,22.05
2018-02-13T10:13:27.569Z,22.06
2018-02-13T10:14:27.567Z,22.01
2018-02-13T10:15:27.566Z,22.05
2018-02-13T10:16:27.572Z,22.02
2018-02-13T10:17:27.550Z,22.05
2018-02-13T10:18:27.561Z,22.05
2018-02-13T10:19:27.542Z,22.06
2018-02-13T10:20:27.531Z,22.08
2018-02-13T10:21:27.532Z,22.12
2018-02-13T10:22:27.530Z,22.12
2018-02-13T10:23:27.539Z,22.14
2018-02-13T10:24:27.531Z,22.08
2018-02-13T10:25:27.574Z,22.15
2018-02-13T10:26:27.525Z,22.20
2018-02-13T10:27:27.516Z,22.19
2018-02-13T10:28:27.532Z,22.15
2018-02-13T10:29:27.525Z,22.11
2018-02-13T10:30:27.508Z,22.11
2018-02-13T10:31:27.505Z,22.08
2018-02-13T10:32:27.505Z,22.15
2018-02-13T10:33:27.496Z,22.15
2018-02-13T10:34:27.492Z,22.17
2018-02-13T10:35:27.490Z,22.09
2018-02-13T10:36:27.473Z,22.14
2018-02-13T10:37:27.495Z,22.17
2018-02-13T10:38:27.475Z,22.08
2018-02-13T10:39:27.470Z,22.21
2018-02-13T10:40:27.470Z,22.06
2018-02-13T10:41:27.480Z,22.11
2018-02-13T10:42:27.471Z,22.09
2018-02-13T10:43:27.460Z,22.11
2018-02-13T10:44:27.448Z,22.14
2018-02-13T10:45:27.470Z,22.19
2018-02-13T10:46:27.455Z,22.06
2018-02-13T10:47:27.452Z,22.09
2018-02-13T10:48:27.441Z,22.09
2018-02-13T10:49:27.449Z,22.11
2018-02-13T10:50:27.427Z,22.09
2018-02-13T10:51:27.432Z,22.05
2018-02-13T10:52:27.430Z,22.17
2018-02-13T10:53:27.425Z,22.08
2018-02-13T10:54:27.430Z,22.08
2018-02-13T10:55:27.460Z,22.05
2018-02-13T10:56:27.418Z,22.01
2018-02-13T10:57:27.421Z,22.08
2018-02-13T10:58:27.407Z,22.06
2018-02-13T10:59:27.400Z,22.01
2018-02-13T11:00:27.407Z,22.11
2018-02-13T11:01:27.391Z,22.05
2018-02-13T11:02:27.395Z,22.04
2018-02-13T11:03:27.383Z,22.04
2018-02-13T11:04:27.368Z,22.01
2018-02-13T11:05:27.378Z,22.04
2018-02-13T11:06:27.386Z,22.02
2018-02-13T11:07:27.369Z,22.02
2018-02-13T11:08:27.367Z,22.01
2018-02-13T11:09:27.372Z,21.99
2018-02-13T11:10:27.352Z,22.05
2018-02-13T11:11:27.356Z,22.04
2018-02-13T11:12:27.353Z,22.01
2018-02-13T11:13:27.361Z,22.05
2018-02-13T11:14:27.341Z,22.02
2018-02-13T11:15:27.337Z,22.08
2018-02-13T11:16:27.341Z,22.02
2018-02-13T11:17:27.326Z,22.01
2018-02-13T11:18:27.342Z,21.99
2018-02-13T11:19:27.329Z,21.99
2018-02-13T11:20:27.332Z,22.01
2018-02-13T11:21:27.318Z,21.99
2018-02-13T11:22:27.314Z,21.99
2018-02-13T11:23:27.318Z,21.99
2018-02-13T11:24:27.312Z,22.02
2018-02-13T11:25:27.307Z,21.99
2018-02-13T11:26:27.297Z,21.93
2018-02-13T11:27:27.302Z,21.93
2018-02-13T11:28:27.300Z,21.89
2018-02-13T11:29:27.283Z,21.89
2018-02-13T11:30:27.287Z,21.93
2018-02-13T11:31:27.292Z,21.91
2018-02-13T11:32:27.273Z,21.94
2018-02-13T11:33:27.272Z,21.93
2018-02-13T11:34:27.268Z,21.86
2018-02-13T11:35:27.278Z,21.90
2018-02-13T11:36:27.261Z,21.90
2018-02-13T11:37:27.282Z,21.89
2018-02-13T11:38:27.251Z,21.90
2018-02-13T11:39:27.273Z,21.83
2018-02-13T11:40:27.246Z,21.91
2018-02-13T11:41:27.258Z,21.85
2018-02-13T11:42:27.238Z,21.93
2018-02-13T11:43:27.246Z,21.83
2018-02-13T11:44:27.237Z,21.94
2018-02-13T11:45:27.229Z,21.77
2018-02-13T11:46:27.227Z,21.86
2018-02-13T11:47:27.228Z,21.81
2018-02-13T11:48:27.218Z,21.86
2018-02-13T11:49:27.219Z,21.82
2018-02-13T11:50:27.273Z,21.89
2018-02-13T11:51:27.203Z,21.89
2018-02-13T11:52:27.225Z,21.74
2018-02-13T11:53:27.194Z,21.71
2018-02-13T11:54:27.196Z,21.63
2018-02-13T11:55:27.202Z,21.71
2018-02-13T11:56:27.188Z,21.77
2018-02-13T11:57:27.214Z,21.74
2018-02-13T11:58:27.183Z,21.70
2018-02-13T11:59:27.178Z,21.71
2018-02-13T12:00:27.164Z,21.70
2018-02-13T12:01:27.167Z,21.68
2018-02-13T12:02:27.172Z,21.66
2018-02-13T12:03:27.163Z,21.71
2018-02-13T12:04:27.160Z,21.58
2018-02-13T12:05:27.160Z,21.49
2018-02-13T12:06:27.153Z,21.43
2018-02-13T12:07:27.159Z,21.49
2018-02-13T12:08:27.144Z,21.48
2018-02-13T12:09:27.154Z,21.45
2018-02-13T12:10:27.149Z,21.37
2018-02-13T12:11:27.142Z,21.36
2018-02-13T12:12:27.152Z,21.42
2018-02-13T12:13:27.123Z,21.38
2018-02-13T12:14:27.130Z,21.28
2018-02-13T12:15:27.126Z,21.30
2018-02-13T12:16:27.112Z,21.28
2018-02-13T12:17:27.106Z,21.33
2018-02-13T12:18:27.113Z,21.36
2018-02-13T12:19:27.097Z,21.36
2018-02-13T12:20:27.125Z,21.38
2018-02-13T12:21:27.105Z,21.34
2018-02-13T12:22:27.093Z,21.33
2018-02-13T12:23:27.098Z,21.31
2018-02-13T12:24:27.078Z,21.31
2018-02-13T12:25:27.076Z,21.27
2018-02-13T12:26:27.073Z,21.28
2018-02-13T12:27:27.110Z,21.33
2018-02-13T12:28:27.060Z,21.31
2018-02-13T12:29:27.077Z,21.31
2018-02-13T12:30:27.078Z,21.22
2018-02-13T12:31:27.060Z,21.21
2018-02-13T12:32:27.048Z,21.27
2018-02-13T12:33:27.069Z,21.24
2018-02-13T12:34:27.047Z,21.22
2018-02-13T12:35:27.052Z,21.22
2018-02-13T12:36:27.044Z,21.27
2018-02-13T12:37:27.039Z,21.24
2018-02-13T12:38:27.036Z,21.27
2018-02-13T12:39:27.020Z,21.28
2018-02-13T12:40:27.032Z,21.21
2018-02-13T12:41:27.028Z,21.27
2018-02-13T12:42:27.021Z,21.18
2018-02-13T12:43:27.040Z,21.16
2018-02-13T12:44:27.026Z,21.19
2018-02-13T12:45:26.994Z,21.13
2018-02-13T12:46:27.003Z,21.16
2018-02-13T12:47:27.008Z,21.15
2018-02-13T12:48:26.988Z,21.13
2018-02-13T12:49:26.986Z,21.19
2018-02-13T12:50:26.975Z,21.15
2018-02-13T12:51:26.983Z,21.09
2018-02-13T12:52:26.971Z,21.12
2018-02-13T12:53:26.978Z,21.06
2018-02-13T12:54:26.962Z,21.13
2018-02-13T12:55:26.966Z,21.09
2018-02-13T12:56:26.962Z,21.06
2018-02-13T12:57:26.973Z,21.03
2018-02-13T12:58:26.957Z,21.06
2018-02-13T12:59:26.944Z,21.09
2018-02-13T13:00:26.945Z,21.03
2018-02-13T13:01:26.961Z,21.05
2018-02-13T13:02:26.930Z,21.00
2018-02-13T13:03:26.931Z,21.03
2018-02-13T13:04:26.918Z,21.05
2018-02-13T13:05:26.916Z,21.03
2018-02-13T13:06:26.924Z,21.03